createdAt,value
2022-08-25T00:01:37.746Z,101161.22
2022-08-25T00:04:10.790Z,101160.28
2022-08-25T00:06:39.634Z,101163.09
2022-08-25T00:09:07.319Z,101163.53
2022-08-25T00:11:35.078Z,101166.50
2022-08-25T00:14:06.462Z,101162.66
2022-08-25T00:16:33.756Z,101161.94
2022-08-25T00:19:05.263Z,101160.34
2022-08-25T00:21:32.325Z,101168.97
2022-08-25T00:23:59.734Z,101161.19
2022-08-25T00:26:27.598Z,101170.63
2022-08-25T00:29:01.109Z,101162.19
2022-08-25T00:31:38.473Z,101171.03
2022-08-25T00:34:09.567Z,101170.38
2022-08-25T00:36:36.243Z,101168.50
2022-08-25T00:39:03.755Z,101167.78
2022-08-25T00:41:30.211Z,101169.03
2022-08-25T00:44:00.878Z,101172.03
2022-08-25T00:46:31.592Z,101177.97
2022-08-25T00:49:06.070Z,101173.22
2022-08-25T00:51:40.781Z,101175.13
2022-08-25T00:54:08.661Z,101176.41
2022-08-25T00:56:35.301Z,101186.19
2022-08-25T00:59:04.242Z,101184.47
2022-08-25T01:01:31.139Z,101178.94
2022-08-25T01:03:57.679Z,101179.06
2022-08-25T01:06:24.729Z,101180.69
2022-08-25T01:08:52.250Z,101175.50
2022-08-25T01:11:18.735Z,101175.41
2022-08-25T01:13:50.130Z,101168.81
2022-08-25T01:16:17.290Z,101178.69
2022-08-25T01:18:58.088Z,101169.50
2022-08-25T01:21:27.130Z,101171.72
2022-08-25T01:23:58.188Z,101175.22
2022-08-25T01:26:30.566Z,101175.00
2022-08-25T01:29:19.666Z,101180.47
2022-08-25T01:31:47.018Z,101188.50
2022-08-25T01:34:15.700Z,101183.75
2022-08-25T01:36:44.037Z,101179.69
2022-08-25T01:39:11.544Z,101187.72
2022-08-25T01:42:07.098Z,101191.09
2022-08-25T01:44:35.933Z,101186.69
2022-08-25T01:47:04.571Z,101185.63
2022-08-25T01:49:31.040Z,101182.97
2022-08-25T01:52:11.309Z,101186.44
2022-08-25T01:54:37.855Z,101183.19
2022-08-25T01:57:05.203Z,101182.50
2022-08-25T01:59:31.610Z,101183.78
2022-08-25T02:02:00.134Z,101178.31
2022-08-25T02:04:31.938Z,101170.28
2022-08-25T02:07:00.495Z,101179.94
2022-08-25T02:09:27.016Z,101181.22
2022-08-25T02:11:54.027Z,101181.22
2022-08-25T02:14:20.494Z,101183.66
2022-08-25T02:16:50.811Z,101187.44
2022-08-25T02:19:19.123Z,101188.81
2022-08-25T02:21:45.675Z,101185.47
2022-08-25T02:24:12.815Z,101183.97
2022-08-25T02:26:39.626Z,101193.34
2022-08-25T02:29:07.419Z,101181.59
2022-08-25T02:31:34.233Z,101184.06
2022-08-25T02:34:02.023Z,101185.19
2022-08-25T02:36:29.890Z,101185.66
2022-08-25T02:38:56.435Z,101180.31
2022-08-25T02:41:31.134Z,101174.63
2022-08-25T02:43:58.682Z,101179.63
2022-08-25T02:46:25.280Z,101170.78
2022-08-25T02:48:53.225Z,101176.09
2022-08-25T02:51:22.018Z,101175.41
2022-08-25T02:53:48.497Z,101174.56
2022-08-25T02:56:17.377Z,101176.22
2022-08-25T02:58:44.386Z,101161.94
2022-08-25T03:01:11.998Z,101163.41
2022-08-25T03:03:40.407Z,101161.22
2022-08-25T03:06:10.255Z,101157.97
2022-08-25T03:08:37.184Z,101149.38
2022-08-25T03:11:05.422Z,101152.22
2022-08-25T03:13:32.456Z,101154.22
2022-08-25T03:16:00.594Z,101154.91
2022-08-25T03:18:27.687Z,101151.41
2022-08-25T03:20:54.880Z,101149.06
2022-08-25T03:23:21.808Z,101144.31
2022-08-25T03:26:06.912Z,101140.25
2022-08-25T03:28:33.368Z,101138.59
2022-08-25T03:31:01.280Z,101139.66
2022-08-25T03:33:30.280Z,101139.28
2022-08-25T03:35:56.962Z,101145.66
2022-08-25T03:38:25.355Z,101146.31
2022-08-25T03:40:52.672Z,101145.50
2022-08-25T03:43:19.849Z,101141.88
2022-08-25T03:45:47.708Z,101139.81
2022-08-25T03:48:16.150Z,101134.09
2022-08-25T03:50:51.527Z,101135.97
2022-08-25T03:53:20.031Z,101141.16
2022-08-25T03:55:47.193Z,101140.91
2022-08-25T03:58:14.643Z,101143.59
2022-08-25T04:00:41.209Z,101139.22
2022-08-25T04:03:07.707Z,101137.06
2022-08-25T04:05:35.283Z,101126.72
2022-08-25T04:08:02.079Z,101120.22
2022-08-25T04:10:29.509Z,101111.25
2022-08-25T04:12:57.025Z,101107.09
2022-08-25T04:15:24.884Z,101100.59
2022-08-25T04:17:55.697Z,101108.97
2022-08-25T04:20:22.174Z,101108.00
2022-08-25T04:22:48.629Z,101106.72
2022-08-25T04:25:15.120Z,101107.91
2022-08-25T04:27:41.964Z,101112.41
2022-08-25T04:30:09.062Z,101109.56
2022-08-25T04:32:36.655Z,101110.66
2022-08-25T04:35:05.172Z,101116.50
2022-08-25T04:37:31.609Z,101112.66
2022-08-25T04:39:58.162Z,101115.31
2022-08-25T04:42:26.357Z,101109.75
2022-08-25T04:44:52.857Z,101119.16
2022-08-25T04:47:19.301Z,101123.81
2022-08-25T04:49:45.847Z,101121.25
2022-08-25T04:52:14.344Z,101115.22
2022-08-25T04:54:41.435Z,101115.22
2022-08-25T04:57:08.127Z,101109.31
2022-08-25T04:59:34.853Z,101112.66
2022-08-25T05:02:03.455Z,101105.97
2022-08-25T05:04:31.748Z,101115.16
2022-08-25T05:06:58.918Z,101109.06
2022-08-25T05:09:26.165Z,101099.16
2022-08-25T05:11:53.748Z,101101.50
2022-08-25T05:14:25.603Z,101101.16
2022-08-25T05:16:53.834Z,101096.88
2022-08-25T05:19:20.293Z,101100.22
2022-08-25T05:21:47.092Z,101101.13
2022-08-25T05:24:13.574Z,101107.69
2022-08-25T05:26:40.021Z,101104.16
2022-08-25T05:29:07.691Z,101100.13
2022-08-25T05:31:38.470Z,101105.09
2022-08-25T05:34:08.730Z,101098.88
2022-08-25T05:36:35.465Z,101093.78
2022-08-25T05:39:02.182Z,101090.66
2022-08-25T05:41:30.837Z,101089.72
2022-08-25T05:43:57.962Z,101090.91
2022-08-25T05:46:25.215Z,101090.78
2022-08-25T05:48:52.535Z,101091.84
2022-08-25T05:51:20.013Z,101087.56
2022-08-25T05:53:49.049Z,101086.38
2022-08-25T05:56:16.662Z,101090.69
2022-08-25T05:58:44.297Z,101085.81
2022-08-25T06:01:38.678Z,101090.38
2022-08-25T06:04:06.193Z,101083.75
2022-08-25T06:06:32.750Z,101082.69
2022-08-25T06:08:59.183Z,101077.00
2022-08-25T06:11:25.789Z,101085.81
2022-08-25T06:13:52.193Z,101083.69
2022-08-25T06:16:18.768Z,101078.66
2022-08-25T06:18:45.802Z,101087.41
2022-08-25T06:21:14.144Z,101088.75
2022-08-25T06:23:41.673Z,101089.31
2022-08-25T06:26:13.130Z,101097.53
2022-08-25T06:28:47.957Z,101084.69
2022-08-25T06:31:14.760Z,101077.56
2022-08-25T06:33:41.247Z,101083.16
2022-08-25T06:36:08.688Z,101078.47
2022-08-25T06:38:35.860Z,101087.38
2022-08-25T06:41:07.383Z,101091.00
2022-08-25T06:43:34.704Z,101093.75
2022-08-25T06:46:18.163Z,101094.25
2022-08-25T06:48:44.709Z,101100.81
2022-08-25T06:51:14.443Z,101093.81
2022-08-25T06:53:41.779Z,101102.38
2022-08-25T06:56:08.592Z,101100.63
2022-08-25T06:58:35.899Z,101096.72
2022-08-25T07:01:19.742Z,101107.31
2022-08-25T07:03:47.700Z,101114.38
2022-08-25T07:06:17.200Z,101110.66
2022-08-25T07:08:46.244Z,101111.84
2022-08-25T07:11:16.631Z,101106.81
2022-08-25T07:13:45.505Z,101108.13
2022-08-25T07:16:12.781Z,101107.94
2022-08-25T07:18:39.246Z,101099.59
2022-08-25T07:21:08.824Z,101098.78
2022-08-25T07:23:36.664Z,101096.69
2022-08-25T07:29:11.043Z,101102.03
2022-08-25T07:31:38.255Z,101097.97
2022-08-25T07:34:25.442Z,101099.28
2022-08-25T07:36:52.374Z,101096.59
2022-08-25T07:39:21.918Z,101098.22
2022-08-25T07:41:51.967Z,101092.25
2022-08-25T07:44:20.944Z,101097.59
2022-08-25T07:46:48.418Z,101099.13
2022-08-25T07:49:17.429Z,101104.72
2022-08-25T07:52:05.497Z,101102.56
2022-08-25T07:54:34.787Z,101101.06
2022-08-25T07:57:03.722Z,101101.47
2022-08-25T07:59:31.016Z,101107.34
2022-08-25T08:02:05.564Z,101110.06
2022-08-25T08:04:32.040Z,101109.34
2022-08-25T08:06:58.496Z,101097.22
2022-08-25T08:09:25.114Z,101097.22
2022-08-25T08:11:54.338Z,101095.94
2022-08-25T08:14:21.049Z,101100.31
2022-08-25T08:16:47.521Z,101091.34
2022-08-25T08:19:14.068Z,101093.75
2022-08-25T08:21:40.780Z,101083.22
2022-08-25T08:24:14.879Z,101086.50
2022-08-25T08:26:59.063Z,101084.94
2022-08-25T08:29:26.302Z,101089.25
2022-08-25T08:31:53.337Z,101081.81
2022-08-25T08:34:19.872Z,101086.09
2022-08-25T08:36:51.512Z,101081.78
2022-08-25T08:39:18.017Z,101081.91
2022-08-25T08:42:11.450Z,101079.06
2022-08-25T08:44:44.476Z,101068.28
2022-08-25T08:47:45.265Z,101069.69
2022-08-25T08:50:33.193Z,101071.22
2022-08-25T08:53:33.988Z,101060.66
2022-08-25T08:56:11.757Z,101057.44
2022-08-25T08:58:55.811Z,101051.47
2022-08-25T09:01:33.588Z,101052.38
2022-08-25T09:04:09.496Z,101053.00
2022-08-25T09:06:45.365Z,101048.31
2022-08-25T09:09:14.567Z,101041.91
2022-08-25T09:11:44.002Z,101047.22
2022-08-25T09:14:13.600Z,101044.19
2022-08-25T09:17:06.115Z,101040.22
2022-08-25T09:19:49.239Z,101042.88
2022-08-25T09:22:36.942Z,101035.50
2022-08-25T09:25:39.586Z,101027.91
2022-08-25T09:28:16.067Z,101032.31
2022-08-25T09:30:54.709Z,101035.66
2022-08-25T09:33:24.219Z,101029.63
2022-08-25T09:35:53.702Z,101028.19
2022-08-25T09:38:20.726Z,101023.81
2022-08-25T09:40:54.269Z,101022.78
2022-08-25T09:43:41.850Z,101023.69
2022-08-25T09:46:08.280Z,101018.50
2022-08-25T09:48:44.967Z,101027.50
2022-08-25T09:51:20.796Z,101011.53
2022-08-25T09:53:58.054Z,101005.72
2022-08-25T09:56:27.958Z,101010.25
2022-08-25T09:59:02.435Z,101004.19
2022-08-25T10:01:29.578Z,101001.59
2022-08-25T10:04:04.882Z,100998.38
2022-08-25T10:06:42.692Z,100994.88
2022-08-25T10:09:25.389Z,101002.78
2022-08-25T10:11:52.638Z,100989.41
2022-08-25T10:14:35.664Z,100987.97
2022-08-25T10:17:29.538Z,100992.91
2022-08-25T10:20:11.866Z,100993.28
2022-08-25T10:22:41.276Z,100994.63
2022-08-25T10:25:11.323Z,100993.22
2022-08-25T10:28:15.845Z,100982.28
2022-08-25T10:31:15.761Z,100984.06
2022-08-25T10:33:55.451Z,100974.00
2022-08-25T10:36:47.045Z,100974.84
2022-08-25T10:39:36.882Z,100965.19
2022-08-25T10:42:34.920Z,100969.06
2022-08-25T10:45:42.256Z,100960.19
2022-08-25T10:48:33.233Z,100961.78
2022-08-25T10:51:31.845Z,100954.09
2022-08-25T10:54:18.958Z,100952.19
2022-08-25T10:57:07.153Z,100948.25
2022-08-25T10:59:46.923Z,100956.84
2022-08-25T11:02:46.790Z,100944.13
2022-08-25T11:05:40.401Z,100940.38
2022-08-25T11:08:11.754Z,100944.47
2022-08-25T11:10:44.712Z,100948.38
2022-08-25T11:13:39.211Z,100938.47
2022-08-25T11:16:28.507Z,100933.44
2022-08-25T11:19:06.792Z,100932.44
2022-08-25T11:21:47.268Z,100921.81
2022-08-25T11:24:27.656Z,100931.44
2022-08-25T11:26:57.472Z,100923.78
2022-08-25T11:29:31.233Z,100922.03
2022-08-25T11:31:59.949Z,100921.16
2022-08-25T11:34:32.333Z,100922.72
2022-08-25T11:37:07.782Z,100920.44
2022-08-25T11:39:37.723Z,100921.78
2022-08-25T11:42:13.273Z,100914.88
2022-08-25T11:44:53.716Z,100919.53
2022-08-25T11:47:51.039Z,100908.28
2022-08-25T11:50:30.040Z,100909.66
2022-08-25T11:53:02.653Z,100911.22
2022-08-25T11:55:48.241Z,100897.50
2022-08-25T11:58:30.626Z,100901.78
2022-08-25T12:01:00.526Z,100898.19
2022-08-25T12:03:33.977Z,100896.53
2022-08-25T12:06:30.094Z,100888.94
2022-08-25T12:09:05.477Z,100885.69
2022-08-25T12:11:53.673Z,100884.25
2022-08-25T12:14:28.185Z,100871.97
2022-08-25T12:16:54.956Z,100878.97
2022-08-25T12:19:30.650Z,100878.28
2022-08-25T12:22:19.130Z,100877.72
2022-08-25T12:25:04.506Z,100867.31
2022-08-25T12:27:33.388Z,100866.31
2022-08-25T12:30:21.522Z,100860.69
2022-08-25T12:33:07.214Z,100860.84
2022-08-25T12:35:55.150Z,100860.03
2022-08-25T12:38:42.471Z,100851.38
2022-08-25T12:41:19.118Z,100851.03
2022-08-25T12:43:48.146Z,100855.47
2022-08-25T12:46:25.672Z,100850.31
2022-08-25T12:49:30.038Z,100844.41
2022-08-25T12:52:18.150Z,100835.06
2022-08-25T12:54:59.491Z,100835.72
2022-08-25T12:57:40.456Z,100836.53
2022-08-25T13:00:18.485Z,100847.03
2022-08-25T13:03:10.076Z,100851.63
2022-08-25T13:05:42.942Z,100837.16
2022-08-25T13:08:37.091Z,100832.75
2022-08-25T13:11:12.335Z,100837.78
2022-08-25T13:14:04.836Z,100824.28
2022-08-25T13:16:33.491Z,100819.63
2022-08-25T13:19:04.969Z,100818.28
2022-08-25T13:21:39.956Z,100808.38
2022-08-25T13:24:19.769Z,100812.00
2022-08-25T13:26:56.482Z,100811.56
2022-08-25T13:29:29.726Z,100806.41
2022-08-25T13:32:09.238Z,100795.03
2022-08-25T13:34:38.817Z,100798.69
2022-08-25T13:37:29.607Z,100797.22
2022-08-25T13:40:12.353Z,100789.22
2022-08-25T13:42:45.125Z,100790.00
2022-08-25T13:45:22.166Z,100791.28
2022-08-25T13:47:55.893Z,100788.28
2022-08-25T13:50:26.433Z,100788.75
2022-08-25T13:53:00.702Z,100791.50
2022-08-25T13:55:38.302Z,100778.75
2022-08-25T13:58:24.663Z,100783.88
2022-08-25T14:01:47.783Z,100781.13
2022-08-25T14:04:27.213Z,100767.81
2022-08-25T14:07:12.641Z,100770.97
2022-08-25T14:10:01.493Z,100775.22
2022-08-25T14:12:33.648Z,100763.69
2022-08-25T14:15:23.734Z,100761.75
2022-08-25T14:18:01.306Z,100760.38
2022-08-25T14:20:31.148Z,100754.56
2022-08-25T14:23:00.408Z,100760.03
2022-08-25T14:25:30.494Z,100759.00
2022-08-25T14:28:10.925Z,100757.88
2022-08-25T14:30:46.127Z,100761.13
2022-08-25T14:33:14.339Z,100751.53
2022-08-25T14:35:45.453Z,100744.31
2022-08-25T14:38:14.222Z,100747.13
2022-08-25T14:40:40.787Z,100752.69
2022-08-25T14:43:09.606Z,100751.16
2022-08-25T14:45:40.830Z,100745.88
2022-08-25T14:48:10.819Z,100739.22
2022-08-25T14:50:41.225Z,100739.69
2022-08-25T14:53:10.281Z,100745.13
2022-08-25T14:55:37.038Z,100750.63
2022-08-25T14:58:03.529Z,100733.28
2022-08-25T15:00:37.132Z,100740.66
2022-08-25T15:03:04.125Z,100744.81
2022-08-25T15:05:31.877Z,100735.75
2022-08-25T15:08:16.844Z,100730.56
2022-08-25T15:10:43.561Z,100728.19
2022-08-25T15:13:10.853Z,100730.53
2022-08-25T15:15:52.403Z,100722.50
2022-08-25T15:18:20.547Z,100725.88
2022-08-25T15:20:46.968Z,100721.41
2022-08-25T15:23:16.537Z,100716.44
2022-08-25T15:25:45.329Z,100713.41
2022-08-25T15:28:12.823Z,100709.38
2022-08-25T15:30:45.880Z,100695.91
2022-08-25T15:33:13.623Z,100700.38
2022-08-25T15:35:40.639Z,100701.34
2022-08-25T15:38:07.995Z,100700.53
2022-08-25T15:40:37.507Z,100700.84
2022-08-25T15:43:04.917Z,100697.31
2022-08-25T15:45:32.020Z,100699.22
2022-08-25T15:47:59.394Z,100698.59
2022-08-25T15:50:26.887Z,100699.81
2022-08-25T15:52:53.825Z,100695.06
2022-08-25T15:55:20.939Z,100696.03
2022-08-25T15:57:47.932Z,100690.72
2022-08-25T16:00:17.031Z,100690.44
2022-08-25T16:02:45.491Z,100691.09
2022-08-25T16:05:13.689Z,100692.25
2022-08-25T16:07:42.779Z,100696.75
2022-08-25T16:10:09.943Z,100686.97
2022-08-25T16:12:38.003Z,100689.88
2022-08-25T16:15:05.685Z,100690.34
2022-08-25T16:17:32.319Z,100691.00
2022-08-25T16:19:58.779Z,100681.41
2022-08-25T16:22:25.645Z,100689.09
2022-08-25T16:24:52.501Z,100683.97
2022-08-25T16:27:19.907Z,100682.38
2022-08-25T16:29:47.220Z,100683.19
2022-08-25T16:32:14.642Z,100682.03
2022-08-25T16:34:42.555Z,100681.75
2022-08-25T16:37:09.164Z,100674.69
2022-08-25T16:39:36.897Z,100678.81
2022-08-25T16:42:06.503Z,100675.81
2022-08-25T16:44:34.359Z,100673.56
2022-08-25T16:47:01.337Z,100666.53
2022-08-25T16:49:27.887Z,100677.41
2022-08-25T16:51:57.254Z,100675.47
2022-08-25T16:54:43.331Z,100673.72
2022-08-25T16:57:09.786Z,100677.66
2022-08-25T16:59:36.336Z,100670.75
2022-08-25T17:02:03.924Z,100672.81
2022-08-25T17:04:32.163Z,100674.72
2022-08-25T17:06:59.222Z,100674.06
2022-08-25T17:09:25.727Z,100666.88
2022-08-25T17:11:56.579Z,100670.47
2022-08-25T17:14:23.162Z,100670.28
2022-08-25T17:16:54.555Z,100665.09
2022-08-25T17:19:21.320Z,100673.63
2022-08-25T17:21:50.180Z,100663.84
2022-08-25T17:24:17.160Z,100669.97
2022-08-25T17:26:46.341Z,100670.81
2022-08-25T17:29:13.236Z,100661.81
2022-08-25T17:31:40.264Z,100676.66
2022-08-25T17:34:09.441Z,100676.81
2022-08-25T17:36:36.217Z,100677.63
2022-08-25T17:39:03.189Z,100681.75
2022-08-25T17:41:30.068Z,100682.47
2022-08-25T17:43:57.193Z,100681.69
2022-08-25T17:46:24.076Z,100687.13
2022-08-25T17:48:51.135Z,100681.88
2022-08-25T17:51:17.654Z,100686.56
2022-08-25T17:53:44.586Z,100685.94
2022-08-25T17:56:14.048Z,100690.03
2022-08-25T17:58:41.945Z,100683.44
2022-08-25T18:01:16.286Z,100685.63
2022-08-25T18:03:43.520Z,100689.63
2022-08-25T18:06:15.123Z,100693.72
2022-08-25T18:08:44.175Z,100687.66
2022-08-25T18:11:11.512Z,100687.03
2022-08-25T18:13:38.731Z,100699.38
2022-08-25T18:16:05.585Z,100694.28
2022-08-25T18:18:34.379Z,100701.41
2022-08-25T18:21:02.635Z,100704.09
2022-08-25T18:23:29.871Z,100699.19
2022-08-25T18:26:00.921Z,100702.81
2022-08-25T18:28:28.784Z,100702.94
2022-08-25T18:30:55.907Z,100698.84
2022-08-25T18:33:23.331Z,100701.41
2022-08-25T18:35:49.881Z,100706.84
2022-08-25T18:38:36.286Z,100702.91
2022-08-25T18:41:06.474Z,100708.63
2022-08-25T18:43:34.902Z,100703.31
2022-08-25T18:46:04.720Z,100707.09
2022-08-25T18:48:32.135Z,100707.13
2022-08-25T18:51:00.617Z,100705.66
2022-08-25T18:53:30.631Z,100715.41
2022-08-25T18:56:04.957Z,100705.22
2022-08-25T18:58:31.588Z,100705.56
2022-08-25T19:00:58.124Z,100707.47
2022-08-25T19:03:24.640Z,100712.88
2022-08-25T19:05:57.187Z,100709.59
2022-08-25T19:08:25.020Z,100722.66
2022-08-25T19:10:53.259Z,100702.47
2022-08-25T19:13:22.539Z,100725.66
2022-08-25T19:15:51.255Z,100718.69
2022-08-25T19:18:26.220Z,100721.69
2022-08-25T19:20:56.274Z,100720.97
2022-08-25T19:23:22.752Z,100720.69
2022-08-25T19:25:49.236Z,100722.63
2022-08-25T19:28:16.719Z,100727.19
2022-08-25T19:30:50.445Z,100728.81
2022-08-25T19:33:42.521Z,100718.59
2022-08-25T19:36:06.299Z,100722.91
2022-08-25T19:38:36.074Z,100724.31
2022-08-25T19:41:10.595Z,100720.53
2022-08-25T19:43:55.198Z,100719.75
2022-08-25T19:46:23.684Z,100717.56
2022-08-25T19:48:50.554Z,100719.22
2022-08-25T19:51:19.443Z,100723.78
2022-08-25T19:53:54.337Z,100724.88
2022-08-25T19:56:22.328Z,100720.56
2022-08-25T19:58:48.886Z,100729.16
2022-08-25T20:01:18.226Z,100724.59
2022-08-25T20:03:45.323Z,100727.25
2022-08-25T20:06:12.300Z,100730.25
2022-08-25T20:08:43.135Z,100726.72
2022-08-25T20:11:09.591Z,100721.91
2022-08-25T20:13:36.273Z,100725.63
2022-08-25T20:16:04.139Z,100725.38
2022-08-25T20:18:32.346Z,100729.13
2022-08-25T20:20:58.879Z,100726.16
2022-08-25T20:23:44.110Z,100730.97
2022-08-25T20:26:10.542Z,100732.56
2022-08-25T20:28:37.077Z,100725.56
2022-08-25T20:31:04.109Z,100725.00
2022-08-25T20:33:32.786Z,100723.97
2022-08-25T20:35:59.203Z,100729.31
2022-08-25T20:38:26.995Z,100729.81
2022-08-25T20:40:53.483Z,100730.38
2022-08-25T20:43:20.875Z,100722.28
2022-08-25T20:45:47.761Z,100727.66
2022-08-25T20:48:14.263Z,100731.09
2022-08-25T20:50:40.816Z,100728.13
2022-08-25T20:53:10.158Z,100727.03
2022-08-25T20:55:42.493Z,100727.53
2022-08-25T20:58:10.311Z,100724.31
2022-08-25T21:00:37.038Z,100733.13
2022-08-25T21:03:03.568Z,100730.75
2022-08-25T21:05:30.090Z,100728.59
2022-08-25T21:07:56.553Z,100734.16
2022-08-25T21:10:23.483Z,100733.34
2022-08-25T21:12:53.286Z,100740.25
2022-08-25T21:15:20.489Z,100740.00
2022-08-25T21:17:53.142Z,100733.88
2022-08-25T21:20:25.571Z,100733.81
2022-08-25T21:22:53.244Z,100733.53
2022-08-25T21:25:20.345Z,100732.72
2022-08-25T21:27:47.934Z,100740.31
2022-08-25T21:30:15.950Z,100744.59
2022-08-25T21:32:53.593Z,100737.53
2022-08-25T21:35:21.303Z,100737.56
2022-08-25T21:37:53.039Z,100746.66
2022-08-25T21:40:21.768Z,100747.22
2022-08-25T21:42:48.800Z,100744.72
2022-08-25T21:45:15.458Z,100748.75
2022-08-25T21:47:42.589Z,100742.59
2022-08-25T21:50:11.924Z,100746.84
2022-08-25T21:52:38.898Z,100751.44
2022-08-25T21:55:08.092Z,100745.50
2022-08-25T21:57:42.326Z,100750.25
2022-08-25T22:00:11.575Z,100750.53
2022-08-25T22:02:38.506Z,100747.31
2022-08-25T22:05:09.367Z,100747.31
2022-08-25T22:07:42.081Z,100741.63
2022-08-25T22:10:12.805Z,100748.09
2022-08-25T22:12:43.890Z,100746.94
2022-08-25T22:15:13.632Z,100750.97
2022-08-25T22:17:40.594Z,100748.84
2022-08-25T22:20:08.910Z,100744.81
2022-08-25T22:22:35.661Z,100745.06
2022-08-25T22:25:03.013Z,100752.03
2022-08-25T22:27:30.313Z,100745.28
2022-08-25T22:29:58.022Z,100748.56
2022-08-25T22:32:24.505Z,100746.31
2022-08-25T22:34:51.030Z,100749.16
2022-08-25T22:37:18.108Z,100747.84
2022-08-25T22:39:48.061Z,100750.88
2022-08-25T22:42:14.684Z,100758.84
2022-08-25T22:44:42.455Z,100752.66
2022-08-25T22:47:10.578Z,100761.31
2022-08-25T22:49:39.319Z,100755.41
2022-08-25T22:52:07.092Z,100759.13
2022-08-25T22:54:36.750Z,100762.16
2022-08-25T22:57:06.689Z,100768.69
2022-08-25T22:59:34.068Z,100768.41
2022-08-25T23:02:00.713Z,100767.72
2022-08-25T23:04:27.487Z,100764.69
2022-08-25T23:06:53.957Z,100771.84
2022-08-25T23:09:21.261Z,100769.50
2022-08-25T23:11:47.952Z,100768.94
2022-08-25T23:14:17.935Z,100759.81
2022-08-25T23:16:44.520Z,100768.41
2022-08-25T23:19:14.002Z,100770.81
2022-08-25T23:22:00.456Z,100765.72
2022-08-25T23:24:29.682Z,100770.19
2022-08-25T23:26:59.344Z,100772.59
2022-08-25T23:29:27.583Z,100773.53
2022-08-25T23:31:54.335Z,100783.25
2022-08-25T23:34:21.513Z,100784.94
2022-08-25T23:36:48.715Z,100773.97
2022-08-25T23:39:15.170Z,100778.06
2022-08-25T23:41:41.930Z,100776.72
2022-08-25T23:44:11.575Z,100774.81
2022-08-25T23:46:39.074Z,100774.09
2022-08-25T23:49:08.138Z,100772.13
2022-08-25T23:51:37.121Z,100773.50
2022-08-25T23:54:09.559Z,100773.22
2022-08-25T23:56:44.506Z,100771.22
2022-08-25T23:59:17.869Z,100776.53
